Hlavní strana
METAR-TAF:

METAR-TAF

Letiště :

Northeast Georgia Regional Airport

Winder, Georgie, Spojené státy americké

zeměpisná šířka: 33-58-56N, zeměpisná délka: 083-40-05W, výška: 287 m

Aktuální stav počasí

Zpráva byla vytvořena před 29 minutami, v 10:55 UTC
Jihojihozápadní vítr 4 kt
Teplota 22°C
Vlhkost vzduchu 88%
Tlak 1023 hPa
Viditelnost: 16.1 km
Polojasno ve výšce 6000 ft

METAR: KWDR 241055Z AUTO 21004KT 10SM SCT060 22/20 A3021 RMK AO2

Čas: 07:24 (11:24 UTC)


TAF: chybějící

Stav a předpovědi počasí z více než 4 000 letišť (zprávy METAR a TAF).

Červené a žluté tečky na mapě představují dostupné meteorologické stanice.

Když kurzor umístíte na tečku, zobrazí se název stanice.

Pak kliknutím zobrazíte stav a předpověď počasí.

Chcete-li změnit mapu, kliknutím na zelené tlačítko se znaménkem +mapu přiblížíte, kliknutím na zelené tlačítko se znaménkem – mapu oddálíte a kliknutím na zelené šipky přejdete na sousední mapy.


METAR-TAF: